Time;durP1;ratioP1;P1;durP2;ratioP2;P2;SDS_P1;SDS_P2;PMS_P1;PMS_P2;Temp;Humidity;BMP_temperature;BMP_pressure;BME280_temperature;BME280_humidity;BME280_pressure;Samples;Min_cycle;Max_cycle;Signal;HPM_P1;HPM_P2
2023/04/21 00:00:57;;;;;;;14.43;13.67;;;7.30;99.90;;;;;;5139867;27;20468;-68
2023/04/21 00:03:26;;;;;;;15.90;15.00;;;7.30;99.90;;;;;;5142478;27;20462;-68
2023/04/21 00:05:53;;;;;;;13.97;13.27;;;7.30;99.90;;;;;;5140761;27;20518;-68
2023/04/21 00:08:22;;;;;;;16.90;15.60;;;7.20;99.90;;;;;;5132965;27;20470;-67
2023/04/21 00:10:48;;;;;;;17.07;15.97;;;7.20;99.90;;;;;;5133401;27;20522;-68
2023/04/21 00:13:15;;;;;;;12.40;11.90;;;7.30;99.90;;;;;;5145362;27;20474;-68
2023/04/21 00:15:42;;;;;;;12.00;11.50;;;7.30;99.90;;;;;;5148190;27;20462;-68
2023/04/21 00:18:09;;;;;;;12.30;11.67;;;7.30;99.90;;;;;;5131757;27;20456;-68
2023/04/21 00:20:36;;;;;;;13.10;12.53;;;7.30;99.90;;;;;;5145623;27;20496;-68
2023/04/21 00:23:03;;;;;;;14.43;13.83;;;7.40;99.90;;;;;;5137233;27;20453;-68
2023/04/21 00:25:32;;;;;;;17.60;16.60;;;7.50;99.90;;;;;;5134827;27;20555;-68
2023/04/21 00:27:59;;;;;;;13.60;13.00;;;7.50;99.90;;;;;;5134718;27;20461;-67
2023/04/21 00:30:26;;;;;;;15.87;14.97;;;7.50;99.90;;;;;;5138563;27;20465;-68
2023/04/21 00:32:53;;;;;;;12.83;12.33;;;7.50;99.90;;;;;;5148987;27;20459;-68
2023/04/21 00:35:21;;;;;;;13.93;13.33;;;7.50;99.90;;;;;;5149423;27;20459;-68
2023/04/21 00:37:49;;;;;;;16.93;15.30;;;7.60;99.90;;;;;;5144123;27;21041;-68
2023/04/21 00:40:16;;;;;;;24.30;22.03;;;7.50;99.90;;;;;;5132981;27;21497;-68
2023/04/21 00:42:45;;;;;;;13.47;12.53;;;7.50;99.90;;;;;;5134297;27;20471;-69
2023/04/21 00:45:14;;;;;;;15.87;14.63;;;7.50;99.90;;;;;;5148826;27;20553;-68
2023/04/21 00:47:40;;;;;;;12.40;11.80;;;7.50;99.90;;;;;;5141296;27;20487;-68
2023/04/21 00:50:08;;;;;;;14.37;13.53;;;7.50;99.90;;;;;;5140233;27;20475;-69
2023/04/21 00:52:35;;;;;;;14.87;14.10;;;7.40;99.90;;;;;;5132588;27;20466;-68
2023/04/21 00:55:02;;;;;;;13.70;12.97;;;7.50;99.90;;;;;;5133566;27;20459;-68
2023/04/21 00:57:31;;;;;;;13.07;12.47;;;7.50;99.90;;;;;;5145790;27;20551;-67
2023/04/21 00:59:59;;;;;;;13.20;12.60;;;7.40;99.90;;;;;;5149033;27;20459;-68
2023/04/21 01:02:27;;;;;;;14.67;13.73;;;7.40;99.90;;;;;;5143321;27;20459;-68
2023/04/21 01:04:54;;;;;;;17.00;15.30;;;7.40;99.90;;;;;;5143429;27;20554;-70
2023/04/21 01:07:20;;;;;;;14.33;13.43;;;7.40;99.90;;;;;;5128692;27;20479;-67
2023/04/21 01:09:47;;;;;;;12.60;11.83;;;7.40;99.90;;;;;;5137605;27;20470;-68
2023/04/21 01:12:14;;;;;;;14.67;13.37;;;7.40;99.90;;;;;;5148636;27;20455;-68
2023/04/21 01:14:41;;;;;;;13.83;12.97;;;7.40;99.90;;;;;;5141230;27;20454;-68
2023/04/21 01:17:10;;;;;;;16.10;14.53;;;7.50;99.90;;;;;;5135818;27;21136;-68
2023/04/21 01:19:40;;;;;;;13.60;13.00;;;7.50;99.90;;;;;;5146225;27;20493;-67
2023/04/21 01:22:11;;;;;;;18.60;17.00;;;7.50;99.90;;;;;;5133708;27;20464;-67
2023/04/21 01:24:39;;;;;;;12.50;11.97;;;7.50;99.90;;;;;;5136959;27;20488;-68
2023/04/21 01:27:10;;;;;;;11.13;10.70;;;7.40;99.90;;;;;;5136237;27;20502;-68
2023/04/21 01:29:37;;;;;;;12.53;11.97;;;7.40;99.90;;;;;;5143102;27;20553;-68
2023/04/21 01:32:06;;;;;;;12.77;12.20;;;7.50;99.90;;;;;;5141484;27;20845;-68
2023/04/21 01:34:33;;;;;;;12.87;12.07;;;7.50;99.90;;;;;;5148373;27;20488;-68
2023/04/21 01:37:00;;;;;;;13.07;11.70;;;7.50;99.90;;;;;;5149676;27;20852;-68
2023/04/21 01:39:28;;;;;;;13.27;12.67;;;7.60;99.90;;;;;;5149040;27;20836;-68
2023/04/21 01:41:57;;;;;;;11.73;11.33;;;7.60;99.90;;;;;;5136972;27;21485;-68
2023/04/21 01:44:24;;;;;;;13.37;12.73;;;7.70;99.90;;;;;;5140212;27;20451;-69
2023/04/21 01:46:51;;;;;;;14.03;12.87;;;7.70;99.90;;;;;;5148436;27;20546;-68
2023/04/21 01:49:19;;;;;;;12.73;12.17;;;7.70;99.90;;;;;;5145302;27;20474;-68
2023/04/21 01:51:45;;;;;;;13.40;12.80;;;7.70;99.90;;;;;;5139011;27;20805;-68
2023/04/21 01:54:13;;;;;;;12.70;12.20;;;7.70;99.90;;;;;;5142053;27;20458;-68
2023/04/21 01:56:41;;;;;;;12.40;11.90;;;7.70;99.90;;;;;;5137311;27;20490;-69
2023/04/21 01:59:08;;;;;;;14.33;13.73;;;7.70;99.90;;;;;;5141060;27;20534;-69
2023/04/21 02:01:35;;;;;;;13.80;13.30;;;7.80;99.90;;;;;;5144134;27;20540;-68
2023/04/21 02:04:02;;;;;;;14.90;14.30;;;7.80;99.90;;;;;;5140689;27;20465;-67
2023/04/21 02:06:30;;;;;;;12.70;12.20;;;7.90;99.90;;;;;;5136687;27;21007;-67
2023/04/21 02:08:57;;;;;;;12.50;12.00;;;7.90;99.90;;;;;;5141076;27;20448;-68
2023/04/21 02:11:25;;;;;;;18.30;17.10;;;7.80;99.90;;;;;;5148224;27;20459;-68
2023/04/21 02:13:54;;;;;;;13.57;13.07;;;7.80;99.90;;;;;;5150120;27;20706;-67
2023/04/21 02:16:24;;;;;;;12.97;12.47;;;7.80;99.90;;;;;;5140491;27;20859;-68
2023/04/21 02:18:52;;;;;;;12.83;12.33;;;7.80;99.90;;;;;;5139410;27;20451;-67
2023/04/21 02:21:21;;;;;;;13.50;12.90;;;7.80;99.90;;;;;;5145473;27;20499;-68
2023/04/21 02:23:47;;;;;;;20.47;18.47;;;7.80;99.90;;;;;;5149596;27;20824;-68
2023/04/21 02:26:14;;;;;;;13.10;12.60;;;7.80;99.90;;;;;;5143106;27;20517;-69
2023/04/21 02:28:41;;;;;;;11.93;11.53;;;7.80;99.90;;;;;;5147569;27;20831;-68
2023/04/21 02:31:10;;;;;;;12.53;12.03;;;7.80;99.90;;;;;;5140065;27;20459;-67
2023/04/21 02:33:37;;;;;;;12.20;11.73;;;7.90;99.90;;;;;;5149495;27;20510;-69
2023/04/21 02:36:04;;;;;;;16.93;12.90;;;8.00;99.90;;;;;;5141880;27;20528;-68
2023/04/21 02:38:31;;;;;;;12.33;11.83;;;7.90;99.90;;;;;;5138354;27;20470;-68
2023/04/21 02:40:58;;;;;;;13.13;12.63;;;7.90;99.90;;;;;;5142796;27;20463;-68
2023/04/21 02:43:24;;;;;;;13.77;13.27;;;7.90;99.90;;;;;;5150724;27;20489;-68
2023/04/21 02:45:51;;;;;;;13.70;13.10;;;7.90;99.90;;;;;;5149197;27;20845;-68
2023/04/21 02:48:21;;;;;;;16.57;15.73;;;7.90;99.90;;;;;;5136049;27;20520;-68
2023/04/21 02:50:49;;;;;;;14.70;13.80;;;7.90;99.90;;;;;;5139334;27;20466;-68
2023/04/21 02:53:16;;;;;;;13.43;12.93;;;7.80;99.90;;;;;;5133746;27;20583;-68
2023/04/21 02:55:43;;;;;;;14.70;14.00;;;7.70;99.90;;;;;;5139316;27;20549;-69
2023/04/21 02:58:10;;;;;;;17.70;16.83;;;7.60;99.90;;;;;;5149316;27;20455;-68
2023/04/21 03:00:37;;;;;;;22.87;18.63;;;7.50;99.90;;;;;;5137793;27;20455;-68
2023/04/21 03:03:05;;;;;;;13.60;13.10;;;7.40;99.90;;;;;;5139660;27;20459;-68
2023/04/21 03:05:33;;;;;;;14.67;14.07;;;7.40;99.90;;;;;;5136837;27;20456;-69
2023/04/21 03:08:00;;;;;;;18.77;17.10;;;7.30;99.90;;;;;;5149198;27;20487;-68
2023/04/21 03:10:27;;;;;;;15.60;14.90;;;7.30;99.90;;;;;;5144966;27;20452;-68
2023/04/21 03:12:56;;;;;;;15.27;14.67;;;7.10;99.90;;;;;;5147971;27;20493;-68
2023/04/21 03:15:23;;;;;;;16.57;15.87;;;7.10;99.90;;;;;;5147231;27;20472;-69
2023/04/21 03:17:50;;;;;;;15.60;15.00;;;7.00;99.90;;;;;;5139933;27;20820;-69
2023/04/21 03:20:18;;;;;;;16.70;16.00;;;6.90;99.90;;;;;;5134792;27;20555;-68
2023/04/21 03:22:46;;;;;;;15.90;15.30;;;6.80;99.90;;;;;;5145490;27;20475;-67
2023/04/21 03:25:13;;;;;;;16.13;15.47;;;6.70;99.90;;;;;;5144601;27;20527;-69
2023/04/21 03:27:39;;;;;;;16.47;15.77;;;6.60;99.90;;;;;;5143513;27;20487;-68
2023/04/21 03:30:07;;;;;;;15.80;15.20;;;6.40;99.90;;;;;;5148733;27;20455;-68
2023/04/21 03:32:34;;;;;;;16.30;15.60;;;6.30;99.90;;;;;;5130930;27;20475;-68
2023/04/21 03:35:01;;;;;;;16.80;16.10;;;6.20;99.90;;;;;;5139646;27;20466;-68
2023/04/21 03:37:28;;;;;;;16.67;15.97;;;6.20;99.90;;;;;;5146026;27;20513;-68
2023/04/21 03:39:56;;;;;;;16.37;15.67;;;6.20;99.90;;;;;;5132955;27;20490;-68
2023/04/21 03:42:24;;;;;;;16.13;15.43;;;6.30;99.90;;;;;;5138707;27;20481;-67
2023/04/21 03:44:51;;;;;;;17.57;16.73;;;6.40;99.90;;;;;;5134966;27;20459;-67
2023/04/21 03:47:18;;;;;;;20.13;18.20;;;6.50;99.90;;;;;;5142702;27;20499;-68
2023/04/21 03:49:45;;;;;;;16.63;15.93;;;6.60;99.90;;;;;;5131298;27;20505;-68
2023/04/21 03:52:11;;;;;;;16.03;15.40;;;6.60;99.90;;;;;;5142260;27;20519;-68
2023/04/21 03:54:38;;;;;;;16.33;15.63;;;6.60;99.90;;;;;;5144951;27;20475;-68
2023/04/21 03:57:07;;;;;;;18.13;17.27;;;6.60;99.90;;;;;;5148435;27;20494;-68
2023/04/21 03:59:34;;;;;;;16.17;15.47;;;6.50;99.90;;;;;;5141469;27;20833;-68
2023/04/21 04:02:01;;;;;;;16.37;15.67;;;6.50;99.90;;;;;;5147740;27;20459;-68
2023/04/21 04:04:27;;;;;;;15.87;15.23;;;6.50;99.90;;;;;;5149188;27;20485;-67
2023/04/21 04:06:54;;;;;;;17.70;16.90;;;6.50;99.90;;;;;;5141841;27;20974;-67
2023/04/21 04:09:22;;;;;;;17.07;16.37;;;6.40;99.90;;;;;;5137229;27;20874;-68
2023/04/21 04:11:48;;;;;;;19.20;18.33;;;6.40;99.90;;;;;;5145762;27;20973;-68
2023/04/21 04:14:17;;;;;;;16.97;16.27;;;6.30;99.90;;;;;;5136499;27;20834;-67
2023/04/21 04:16:44;;;;;;;19.90;18.63;;;6.20;99.90;;;;;;5141750;27;20488;-69
2023/04/21 04:19:12;;;;;;;19.63;18.63;;;6.20;99.90;;;;;;5147498;27;20450;-68
2023/04/21 04:21:39;;;;;;;17.90;17.10;;;6.10;99.90;;;;;;5135477;27;20467;-67
2023/04/21 04:24:07;;;;;;;17.30;16.60;;;6.10;99.90;;;;;;5149410;27;20466;-68
2023/04/21 04:26:37;;;;;;;17.63;16.87;;;6.00;99.90;;;;;;5141022;27;20972;-67
2023/04/21 04:29:04;;;;;;;17.60;16.83;;;5.90;99.90;;;;;;5145280;27;20462;-68
2023/04/21 04:31:33;;;;;;;20.50;19.23;;;5.80;99.90;;;;;;5144849;27;20470;-69
2023/04/21 04:34:00;;;;;;;17.47;16.77;;;5.80;99.90;;;;;;5132659;27;20461;-68
2023/04/21 04:36:27;;;;;;;18.20;17.40;;;5.70;99.90;;;;;;5147640;27;20467;-68
2023/04/21 04:38:55;;;;;;;20.33;19.33;;;5.70;99.90;;;;;;5149497;27;20461;-68
2023/04/21 04:41:22;;;;;;;18.17;17.37;;;5.80;99.90;;;;;;5137711;27;20626;-67
2023/04/21 04:43:49;;;;;;;18.50;17.70;;;5.80;99.90;;;;;;5135426;27;20501;-68
2023/04/21 04:46:19;;;;;;;18.10;17.30;;;5.80;99.90;;;;;;5129372;27;20476;-67
2023/04/21 04:48:47;;;;;;;20.87;19.53;;;5.90;99.90;;;;;;5143200;27;20957;-68
2023/04/21 04:51:15;;;;;;;19.73;18.83;;;5.90;99.90;;;;;;5133264;27;20483;-68
2023/04/21 04:53:41;;;;;;;21.17;19.87;;;5.90;99.90;;;;;;5141225;27;20456;-67
2023/04/21 04:56:09;;;;;;;17.97;17.17;;;6.00;99.90;;;;;;5139495;27;20480;-67
2023/04/21 04:58:36;;;;;;;17.10;16.40;;;6.00;99.90;;;;;;5145118;27;20815;-67
2023/04/21 05:01:12;;;;;;;17.67;16.90;;;6.00;99.90;;;;;;5148415;27;20945;-68
2023/04/21 05:03:40;;;;;;;17.60;16.90;;;6.00;99.90;;;;;;5149134;27;20452;-68
2023/04/21 05:06:09;;;;;;;19.90;18.90;;;6.10;99.90;;;;;;5140797;27;20460;-68
2023/04/21 05:08:36;;;;;;;17.30;16.60;;;6.20;99.90;;;;;;5142806;27;20590;-67
2023/04/21 05:11:03;;;;;;;17.23;16.53;;;6.10;99.90;;;;;;5141625;27;20463;-68
2023/04/21 05:13:29;;;;;;;17.77;16.97;;;6.10;99.90;;;;;;5136403;27;20448;-68
2023/04/21 05:16:00;;;;;;;16.60;15.90;;;6.10;99.90;;;;;;5149783;27;20453;-69
2023/04/21 05:18:27;;;;;;;16.90;16.20;;;6.10;99.90;;;;;;5146344;27;20459;-67
2023/04/21 05:20:55;;;;;;;17.17;16.47;;;6.20;99.90;;;;;;5134159;27;20459;-68
2023/04/21 05:23:23;;;;;;;16.83;16.13;;;6.20;99.90;;;;;;5136746;27;20527;-68
2023/04/21 05:25:50;;;;;;;18.07;17.27;;;6.30;99.90;;;;;;5148644;27;20454;-67
2023/04/21 05:28:17;;;;;;;17.53;16.80;;;6.40;99.90;;;;;;5145210;27;20493;-67
2023/04/21 05:30:44;;;;;;;17.47;16.77;;;6.40;99.90;;;;;;5144612;27;20659;-68
2023/04/21 05:33:11;;;;;;;17.80;17.00;;;6.40;99.90;;;;;;5139856;27;20451;-67
2023/04/21 05:35:38;;;;;;;18.63;17.70;;;6.40;99.90;;;;;;5143257;27;20460;-67
2023/04/21 05:38:06;;;;;;;21.40;20.10;;;6.40;99.90;;;;;;5150503;27;20538;-68
2023/04/21 05:40:36;;;;;;;18.00;17.20;;;6.50;99.90;;;;;;5144565;27;20518;-67
2023/04/21 05:43:03;;;;;;;17.73;16.93;;;6.50;99.90;;;;;;5146329;27;20454;-68
2023/04/21 05:45:30;;;;;;;17.03;16.33;;;6.50;99.90;;;;;;5143054;27;20722;-67
2023/04/21 05:47:58;;;;;;;17.40;16.70;;;6.60;99.90;;;;;;5149561;27;20479;-68
2023/04/21 05:50:32;;;;;;;17.23;16.53;;;6.60;99.90;;;;;;5149340;27;20466;-68
2023/04/21 05:52:59;;;;;;;16.90;16.20;;;6.60;99.90;;;;;;5133749;27;20466;-68
2023/04/21 05:55:26;;;;;;;16.60;15.90;;;6.60;99.90;;;;;;5140739;27;20955;-68
2023/04/21 05:57:54;;;;;;;18.70;17.73;;;6.60;99.90;;;;;;5146593;27;20477;-68
2023/04/21 06:00:21;;;;;;;16.43;15.73;;;6.70;99.90;;;;;;5147080;27;20453;-67
2023/04/21 06:02:48;;;;;;;18.37;17.57;;;6.70;99.90;;;;;;5137546;27;20542;-67
2023/04/21 06:05:15;;;;;;;16.40;15.70;;;6.80;99.90;;;;;;5136808;27;20463;-67
2023/04/21 06:07:42;;;;;;;16.93;16.23;;;6.90;99.90;;;;;;5146596;27;20561;-67
2023/04/21 06:10:10;;;;;;;16.13;15.43;;;7.00;99.90;;;;;;5147289;27;20459;-67
2023/04/21 06:12:36;;;;;;;16.10;15.40;;;7.10;99.90;;;;;;5140783;27;20505;-68
2023/04/21 06:15:07;;;;;;;16.90;16.20;;;7.20;99.90;;;;;;5139547;27;20788;-69
2023/04/21 06:17:33;;;;;;;16.97;16.27;;;7.30;99.90;;;;;;5149080;27;20466;-68
2023/04/21 06:20:00;;;;;;;17.00;16.27;;;7.30;99.90;;;;;;5145078;27;20471;-68
2023/04/21 06:22:28;;;;;;;16.47;15.77;;;7.40;99.90;;;;;;5144957;27;20556;-68
2023/04/21 06:24:55;;;;;;;16.57;15.87;;;7.50;99.90;;;;;;5142398;27;20546;-67
2023/04/21 06:27:22;;;;;;;16.30;15.60;;;7.60;99.90;;;;;;5138211;27;20499;-68
2023/04/21 06:29:53;;;;;;;16.77;16.07;;;7.70;99.90;;;;;;5117434;27;20884;-68
2023/04/21 06:32:21;;;;;;;16.80;16.10;;;7.80;99.90;;;;;;5133255;27;20455;-68
2023/04/21 06:34:48;;;;;;;22.47;21.07;;;7.90;99.90;;;;;;5134172;27;20455;-68
2023/04/21 06:37:15;;;;;;;17.73;16.93;;;7.90;99.90;;;;;;5137490;27;20859;-67
2023/04/21 06:39:42;;;;;;;16.43;15.73;;;7.90;99.90;;;;;;5136842;27;20460;-68
2023/04/21 06:42:09;;;;;;;17.07;16.33;;;8.00;99.90;;;;;;5135458;27;20512;-67
2023/04/21 06:44:37;;;;;;;16.90;16.20;;;8.20;99.90;;;;;;5141856;27;20459;-68
2023/04/21 06:47:04;;;;;;;19.80;18.80;;;8.30;99.90;;;;;;5139912;27;20482;-68
2023/04/21 06:49:33;;;;;;;16.90;16.20;;;8.50;99.90;;;;;;5139499;27;20503;-69
2023/04/21 06:51:59;;;;;;;18.60;17.70;;;8.70;99.90;;;;;;5137521;27;20819;-68
2023/04/21 06:54:26;;;;;;;17.63;16.87;;;8.70;99.90;;;;;;5135635;27;20954;-68
2023/04/21 06:56:53;;;;;;;17.87;17.00;;;8.80;99.90;;;;;;5139396;27;21072;-68
2023/04/21 06:59:20;;;;;;;16.40;15.70;;;8.90;99.90;;;;;;5137650;27;20459;-68
2023/04/21 07:01:47;;;;;;;20.00;18.87;;;8.90;99.90;;;;;;5133709;27;20949;-69
2023/04/21 07:04:15;;;;;;;18.20;17.30;;;9.00;99.90;;;;;;5142763;27;20491;-68
2023/04/21 07:06:43;;;;;;;20.87;19.23;;;8.90;99.90;;;;;;5145708;27;20463;-68
2023/04/21 07:09:10;;;;;;;17.80;16.90;;;9.00;99.90;;;;;;5143761;27;20503;-68
2023/04/21 07:11:37;;;;;;;19.97;18.87;;;9.20;99.90;;;;;;5139396;27;20448;-68
2023/04/21 07:14:03;;;;;;;18.20;17.30;;;9.40;99.90;;;;;;5140673;27;20459;-68
2023/04/21 07:16:30;;;;;;;17.10;16.30;;;9.20;99.90;;;;;;5146626;27;20454;-68
2023/04/21 07:18:57;;;;;;;17.70;16.80;;;9.30;99.90;;;;;;5138639;27;20947;-68
2023/04/21 07:21:25;;;;;;;17.63;16.83;;;9.40;99.90;;;;;;5143508;27;20459;-68
2023/04/21 07:23:53;;;;;;;17.60;16.70;;;9.60;99.90;;;;;;5145170;27;20501;-68
2023/04/21 07:26:20;;;;;;;17.80;16.90;;;9.80;99.90;;;;;;5144285;27;20467;-68
2023/04/21 07:28:49;;;;;;;20.53;19.00;;;9.90;99.90;;;;;;5143811;27;20482;-68
2023/04/21 07:31:17;;;;;;;18.63;17.63;;;9.90;99.90;;;;;;5139364;27;20467;-68
2023/04/21 07:33:43;;;;;;;18.13;17.13;;;9.90;99.90;;;;;;5134169;27;20814;-68
2023/04/21 07:36:10;;;;;;;19.07;18.07;;;9.90;99.90;;;;;;5143296;27;20467;-68
2023/04/21 07:38:41;;;;;;;19.00;17.97;;;10.10;99.90;;;;;;5147156;27;20505;-68
2023/04/21 07:41:11;;;;;;;18.47;17.47;;;10.20;99.90;;;;;;5143342;27;20524;-69
2023/04/21 07:43:38;;;;;;;20.40;19.00;;;10.40;99.90;;;;;;5132637;27;20455;-68
2023/04/21 07:46:05;;;;;;;20.23;19.03;;;10.40;99.90;;;;;;5145093;27;20484;-68
2023/04/21 07:48:32;;;;;;;19.10;17.80;;;10.50;99.90;;;;;;5143431;27;20497;-68
2023/04/21 07:50:59;;;;;;;17.70;16.80;;;10.50;99.90;;;;;;5144451;27;20510;-68
2023/04/21 07:53:26;;;;;;;18.07;17.07;;;10.60;99.90;;;;;;5140872;27;20961;-68
2023/04/21 07:55:53;;;;;;;22.63;17.77;;;10.70;99.90;;;;;;5143008;27;20452;-69
2023/04/21 07:58:21;;;;;;;18.17;17.10;;;11.00;99.90;;;;;;5145061;27;21062;-68
2023/04/21 08:00:48;;;;;;;18.80;17.40;;;10.90;99.90;;;;;;5143396;27;20456;-68
2023/04/21 08:03:16;;;;;;;18.93;17.73;;;11.00;99.90;;;;;;5135473;27;20953;-68
2023/04/21 08:05:43;;;;;;;21.10;19.40;;;11.10;99.90;;;;;;5144300;27;20491;-68
2023/04/21 08:08:10;;;;;;;16.60;15.40;;;11.30;99.90;;;;;;5139159;27;20483;-68
2023/04/21 08:10:36;;;;;;;18.17;17.10;;;11.70;99.90;;;;;;5144632;27;20788;-68
2023/04/21 08:13:05;;;;;;;15.10;14.30;;;11.90;99.90;;;;;;5144003;27;20463;-68
2023/04/21 08:15:33;;;;;;;15.10;14.30;;;12.10;99.90;;;;;;5142858;27;20473;-68
2023/04/21 08:18:00;;;;;;;16.07;15.17;;;12.20;99.90;;;;;;5146605;27;20971;-68
2023/04/21 08:20:27;;;;;;;13.90;13.20;;;12.30;99.90;;;;;;5137272;27;20470;-68
2023/04/21 08:22:55;;;;;;;17.90;16.57;;;12.50;99.90;;;;;;5134751;27;20460;-69
2023/04/21 08:25:22;;;;;;;14.40;13.70;;;12.70;99.90;;;;;;5147155;27;20463;-69
2023/04/21 08:27:49;;;;;;;16.20;15.30;;;13.00;99.90;;;;;;5142173;27;20976;-68
2023/04/21 08:30:18;;;;;;;13.60;13.00;;;13.30;99.90;;;;;;5142528;27;20515;-69
2023/04/21 08:32:46;;;;;;;14.17;13.47;;;13.40;99.90;;;;;;5145496;27;20459;-69
2023/04/21 08:35:13;;;;;;;17.53;16.43;;;13.60;99.90;;;;;;5137370;27;20471;-69
2023/04/21 08:37:39;;;;;;;14.80;14.10;;;13.70;99.90;;;;;;5143608;27;20455;-69
2023/04/21 08:40:08;;;;;;;14.90;14.20;;;13.90;99.90;;;;;;5142521;27;20566;-68
2023/04/21 08:42:37;;;;;;;13.40;12.80;;;14.00;99.90;;;;;;5136193;27;20463;-69
2023/04/21 08:45:05;;;;;;;14.10;13.50;;;14.40;99.90;;;;;;5146702;27;20451;-69
2023/04/21 08:47:33;;;;;;;16.87;15.97;;;14.80;99.90;;;;;;5146701;27;20475;-69
2023/04/21 08:50:01;;;;;;;18.17;16.97;;;15.00;99.90;;;;;;5141418;27;20487;-69
2023/04/21 08:52:28;;;;;;;18.57;17.30;;;15.40;99.90;;;;;;5138650;27;20464;-69
2023/04/21 08:54:56;;;;;;;26.77;23.97;;;15.50;99.90;;;;;;5144237;27;20542;-69
2023/04/21 08:57:23;;;;;;;15.50;14.70;;;15.40;99.90;;;;;;5146825;27;20478;-69
2023/04/21 08:59:50;;;;;;;16.67;15.57;;;15.60;99.90;;;;;;5148021;27;20455;-69
2023/04/21 09:02:19;;;;;;;16.53;15.63;;;15.90;99.90;;;;;;5146472;27;20455;-69
2023/04/21 09:04:47;;;;;;;15.80;15.00;;;16.60;99.90;;;;;;5135570;27;20558;-69
2023/04/21 09:07:31;;;;;;;16.20;15.40;;;17.30;99.90;;;;;;5144342;27;20463;-69
2023/04/21 09:10:00;;;;;;;18.30;17.13;;;18.00;99.90;;;;;;5149063;27;21074;-69
2023/04/21 09:12:27;;;;;;;21.00;19.33;;;18.40;99.90;;;;;;5144121;27;20452;-68
2023/04/21 09:14:56;;;;;;;18.23;17.20;;;17.40;99.90;;;;;;5150910;27;20534;-68
2023/04/21 09:17:31;;;;;;;16.90;16.10;;;17.50;99.90;;;;;;5148499;27;20461;-69
2023/04/21 09:19:58;;;;;;;16.60;15.80;;;17.90;99.90;;;;;;5145899;27;20482;-68
2023/04/21 09:22:29;;;;;;;16.47;15.67;;;18.30;99.90;;;;;;5138472;27;20520;-68
2023/04/21 09:24:59;;;;;;;17.93;16.93;;;18.60;99.90;;;;;;5142177;27;20565;-68
2023/04/21 09:27:26;;;;;;;16.70;15.90;;;19.20;99.90;;;;;;5141008;27;20452;-69
2023/04/21 09:29:53;;;;;;;16.57;15.77;;;19.80;99.90;;;;;;5136440;27;20471;-69
2023/04/21 09:32:21;;;;;;;18.40;17.50;;;20.20;99.90;;;;;;5140720;27;20609;-70
2023/04/21 09:34:49;;;;;;;17.13;16.23;;;20.50;99.90;;;;;;5150556;27;20447;-67
2023/04/21 09:37:16;;;;;;;18.03;17.07;;;20.40;99.90;;;;;;5148501;27;20459;-66
2023/04/21 09:39:46;;;;;;;18.20;17.30;;;19.90;99.90;;;;;;5141068;27;20467;-67
2023/04/21 09:42:13;;;;;;;18.60;17.60;;;20.10;99.90;;;;;;5144995;27;20507;-68
2023/04/21 09:44:40;;;;;;;20.60;19.40;;;19.90;99.90;;;;;;5144710;27;20455;-68
2023/04/21 09:47:11;;;;;;;17.07;16.20;;;19.70;99.90;;;;;;5147200;27;20475;-67
2023/04/21 09:49:43;;;;;;;16.97;16.17;;;20.20;99.90;;;;;;5142689;27;20653;-67
2023/04/21 09:52:11;;;;;;;17.90;16.90;;;20.60;99.90;;;;;;5141168;27;21100;-67
2023/04/21 09:54:45;;;;;;;18.43;17.47;;;20.60;99.90;;;;;;5141508;27;20482;-67
2023/04/21 09:57:20;;;;;;;18.20;17.30;;;21.30;99.90;;;;;;5149000;27;20486;-69
2023/04/21 09:59:49;;;;;;;17.20;16.40;;;21.60;99.90;;;;;;5139324;27;20460;-67
2023/04/21 10:02:19;;;;;;;16.83;16.03;;;21.20;99.90;;;;;;5142136;27;20890;-67
2023/04/21 10:04:46;;;;;;;17.63;16.83;;;21.30;99.90;;;;;;5144425;27;20491;-67
2023/04/21 10:07:12;;;;;;;17.07;16.27;;;21.60;99.90;;;;;;5146692;27;20458;-67
2023/04/21 10:09:45;;;;;;;19.90;18.27;;;21.70;99.90;;;;;;5139803;27;20487;-68
2023/04/21 10:12:13;;;;;;;16.97;16.13;;;21.70;99.90;;;;;;5142071;27;20458;-68
2023/04/21 10:14:40;;;;;;;16.77;15.97;;;22.00;99.90;;;;;;5136082;27;20453;-68
2023/04/21 10:17:10;;;;;;;17.57;16.67;;;22.20;99.90;;;;;;5148128;27;20458;-68
2023/04/21 10:19:39;;;;;;;17.30;16.33;;;22.60;99.90;;;;;;5144684;27;20459;-68
2023/04/21 10:22:08;;;;;;;17.00;16.20;;;22.80;99.90;;;;;;5140824;27;20461;-68
2023/04/21 10:24:38;;;;;;;17.57;16.77;;;23.20;99.90;;;;;;5137907;27;20467;-68
2023/04/21 10:27:05;;;;;;;17.97;17.10;;;23.40;97.60;;;;;;5132182;27;20594;-69
2023/04/21 10:29:34;;;;;;;17.63;16.77;;;23.10;99.50;;;;;;5139285;27;21029;-68
2023/04/21 10:32:03;;;;;;;17.13;16.37;;;23.20;98.60;;;;;;5137865;27;20459;-67
2023/04/21 10:34:34;;;;;;;17.27;16.47;;;22.50;99.00;;;;;;5143426;27;20864;-68
2023/04/21 10:37:17;;;;;;;17.60;16.80;;;22.00;99.60;;;;;;5145366;27;20478;-67
2023/04/21 10:39:50;;;;;;;18.00;17.10;;;21.60;99.90;;;;;;5132504;27;20945;-67
2023/04/21 10:42:23;;;;;;;17.97;17.17;;;21.30;99.90;;;;;;5148558;27;20462;-68
2023/04/21 10:45:02;;;;;;;17.33;16.53;;;21.10;99.90;;;;;;5139149;27;21133;-67
2023/04/21 10:47:35;;;;;;;16.93;16.13;;;21.20;99.90;;;;;;5144015;27;20478;-67
2023/04/21 10:50:12;;;;;;;18.20;17.30;;;21.20;99.50;;;;;;5147896;27;20487;-67
2023/04/21 10:52:39;;;;;;;17.83;16.93;;;20.90;99.80;;;;;;5139568;27;20455;-66
2023/04/21 10:55:11;;;;;;;19.27;18.10;;;20.50;98.70;;;;;;5137677;27;20456;-67
2023/04/21 10:57:40;;;;;;;17.30;16.50;;;20.20;98.60;;;;;;5139328;27;20483;-67
2023/04/21 11:00:11;;;;;;;18.90;17.90;;;20.20;99.50;;;;;;5138017;27;20456;-67
2023/04/21 11:02:38;;;;;;;17.70;16.90;;;20.20;99.90;;;;;;5143382;27;20485;-66
2023/04/21 11:05:06;;;;;;;18.17;17.27;;;21.00;99.50;;;;;;5135569;27;20877;-67
2023/04/21 11:07:32;;;;;;;19.37;18.40;;;21.80;99.40;;;;;;5140348;27;20992;-67
2023/04/21 11:10:00;;;;;;;17.77;16.10;;;22.20;98.10;;;;;;5138333;27;21070;-67
2023/04/21 11:12:29;;;;;;;18.90;17.90;;;22.20;97.60;;;;;;5139907;27;20459;-67
2023/04/21 11:14:56;;;;;;;17.53;16.63;;;23.00;96.20;;;;;;5140523;27;20464;-65
2023/04/21 11:17:25;;;;;;;18.70;17.80;;;23.70;95.60;;;;;;5146432;27;20942;-67
2023/04/21 11:19:53;;;;;;;17.60;16.73;;;24.30;93.40;;;;;;5141012;27;20463;-67
2023/04/21 11:22:20;;;;;;;18.13;17.23;;;24.00;93.40;;;;;;5146937;27;20520;-67
2023/04/21 11:24:49;;;;;;;19.10;17.90;;;24.00;92.70;;;;;;5148223;27;20455;-66
2023/04/21 11:27:16;;;;;;;19.17;18.07;;;23.70;91.80;;;;;;5139794;27;20525;-67
2023/04/21 11:29:45;;;;;;;17.60;16.80;;;23.10;90.90;;;;;;5131768;27;20553;-67
2023/04/21 11:32:13;;;;;;;19.80;18.53;;;22.40;92.10;;;;;;5143562;27;20466;-68
2023/04/21 11:34:42;;;;;;;19.67;18.63;;;22.30;92.30;;;;;;5141959;27;20460;-67
2023/04/21 11:37:09;;;;;;;24.00;18.10;;;21.10;94.10;;;;;;5140469;27;21125;-67
2023/04/21 11:39:39;;;;;;;19.23;17.83;;;21.50;93.90;;;;;;5141484;27;20541;-68
2023/04/21 11:42:06;;;;;;;18.53;17.53;;;22.40;95.90;;;;;;5138482;27;20462;-67
2023/04/21 11:44:37;;;;;;;17.37;16.40;;;23.00;94.30;;;;;;5133640;27;20977;-67
2023/04/21 11:47:13;;;;;;;19.23;18.10;;;21.80;92.90;;;;;;5121871;27;20476;-68
2023/04/21 11:49:46;;;;;;;16.73;15.93;;;21.20;92.30;;;;;;5133404;27;20482;-67
2023/04/21 11:52:21;;;;;;;16.13;15.43;;;21.70;94.40;;;;;;5131409;27;20784;-68
2023/04/21 11:54:48;;;;;;;16.17;15.47;;;22.90;95.20;;;;;;5134332;27;20452;-68
2023/04/21 11:57:18;;;;;;;16.00;15.30;;;24.00;93.30;;;;;;5120979;27;21032;-68
2023/04/21 11:59:47;;;;;;;16.20;15.50;;;24.70;91.50;;;;;;5132767;27;20544;-69
2023/04/21 12:02:20;;;;;;;17.00;16.10;;;25.60;90.50;;;;;;5129087;27;21032;-69
2023/04/21 12:05:00;;;;;;;18.73;17.60;;;25.50;84.40;;;;;;5131112;27;20463;-68
2023/04/21 12:07:30;;;;;;;17.40;16.50;;;24.90;83.10;;;;;;5143737;27;20458;-68
2023/04/21 12:09:57;;;;;;;16.70;15.90;;;24.70;83.40;;;;;;5133042;27;20494;-69
2023/04/21 12:12:24;;;;;;;17.67;16.77;;;25.00;80.40;;;;;;5133652;27;20459;-69
2023/04/21 12:14:52;;;;;;;17.23;16.03;;;25.30;82.10;;;;;;5145499;27;20508;-69
2023/04/21 12:17:19;;;;;;;16.30;15.40;;;25.70;83.50;;;;;;5137086;27;20572;-68
2023/04/21 12:19:46;;;;;;;18.43;17.30;;;25.80;80.40;;;;;;5135779;27;20484;-69
2023/04/21 12:22:16;;;;;;;15.63;14.93;;;25.80;76.60;;;;;;5145407;27;20515;-69
2023/04/21 12:24:43;;;;;;;17.73;16.83;;;25.90;78.30;;;;;;5133520;27;20521;-68
2023/04/21 12:27:11;;;;;;;16.83;16.10;;;26.00;78.40;;;;;;5137273;27;20941;-69
2023/04/21 12:29:39;;;;;;;17.63;16.67;;;26.50;76.60;;;;;;5146602;27;20471;-69
2023/04/21 12:32:06;;;;;;;17.03;16.13;;;26.20;72.60;;;;;;5133876;27;20476;-68
2023/04/21 12:34:34;;;;;;;19.20;17.93;;;26.30;75.70;;;;;;5136496;27;20521;-68
2023/04/21 12:37:01;;;;;;;17.67;16.83;;;24.60;77.20;;;;;;5138813;27;20507;-69